createdAt,value
2022-12-12T00:00:42.349Z,14.18
2022-12-12T00:03:09.473Z,14.03
2022-12-12T00:05:36.697Z,14.18
2022-12-12T00:08:03.817Z,14.90
2022-12-12T00:10:30.955Z,13.15
2022-12-12T00:12:58.185Z,13.60
2022-12-12T00:15:25.462Z,13.82
2022-12-12T00:17:52.450Z,13.23
2022-12-12T00:20:19.551Z,14.57
2022-12-12T00:22:46.667Z,15.13
2022-12-12T00:25:14.011Z,14.80
2022-12-12T00:27:41.354Z,14.25
2022-12-12T00:30:08.688Z,14.52
2022-12-12T00:32:35.757Z,13.70
2022-12-12T00:35:02.897Z,14.77
2022-12-12T00:37:29.988Z,15.27
2022-12-12T00:39:57.118Z,15.20
2022-12-12T00:42:27.125Z,14.88
2022-12-12T00:44:54.232Z,15.07
2022-12-12T00:47:21.313Z,14.85
2022-12-12T00:49:48.356Z,15.85
2022-12-12T00:52:15.430Z,14.85
2022-12-12T00:54:42.486Z,14.85
2022-12-12T00:57:09.565Z,15.82
2022-12-12T00:59:36.604Z,15.23
2022-12-12T01:02:03.966Z,14.48
2022-12-12T01:04:31.056Z,14.43
2022-12-12T01:06:58.195Z,13.93
2022-12-12T01:09:25.235Z,14.60
2022-12-12T01:11:52.304Z,14.00
2022-12-12T01:14:19.369Z,15.20
2022-12-12T01:16:46.452Z,14.82
2022-12-12T01:19:13.823Z,15.00
2022-12-12T01:21:40.918Z,14.97
2022-12-12T01:24:09.000Z,14.80
2022-12-12T01:26:37.100Z,13.87
2022-12-12T01:29:04.200Z,14.25
2022-12-12T01:31:31.389Z,14.23
2022-12-12T01:33:58.451Z,14.50
2022-12-12T01:36:25.580Z,14.00
2022-12-12T01:38:53.962Z,13.38
2022-12-12T01:41:22.028Z,14.00
2022-12-12T01:43:49.438Z,13.90
2022-12-12T01:46:31.438Z,13.95
2022-12-12T01:49:04.728Z,13.23
2022-12-12T01:51:32.028Z,12.80
2022-12-12T01:54:01.814Z,13.60
2022-12-12T01:56:28.919Z,12.73
2022-12-12T01:58:56.305Z,13.02
2022-12-12T02:01:23.906Z,12.27
2022-12-12T02:03:51.094Z,12.32
2022-12-12T02:06:21.027Z,12.57
2022-12-12T02:08:48.512Z,12.00
2022-12-12T02:11:15.615Z,11.95
2022-12-12T02:13:42.645Z,12.60
2022-12-12T02:16:09.847Z,11.65
2022-12-12T02:18:39.731Z,11.63
2022-12-12T02:21:06.755Z,11.88
2022-12-12T02:23:46.350Z,11.40
2022-12-12T02:26:28.964Z,11.63
2022-12-12T02:29:15.939Z,11.73
2022-12-12T02:31:44.010Z,11.65
2022-12-12T02:34:19.759Z,11.15
2022-12-12T02:36:47.803Z,12.10
2022-12-12T02:39:20.077Z,11.88
2022-12-12T02:41:51.220Z,12.25
2022-12-12T02:44:38.218Z,10.88
2022-12-12T02:47:10.273Z,12.07
2022-12-12T02:49:37.323Z,11.82
2022-12-12T02:52:05.565Z,11.98
2022-12-12T02:54:32.647Z,12.18
2022-12-12T02:57:00.557Z,12.18
2022-12-12T02:59:30.382Z,12.20
2022-12-12T03:02:04.806Z,13.05
2022-12-12T03:05:00.225Z,12.05
2022-12-12T03:07:52.970Z,11.85
2022-12-12T03:10:40.082Z,12.27
2022-12-12T03:13:27.042Z,12.33
2022-12-12T03:15:57.577Z,13.40
2022-12-12T03:18:24.733Z,12.95
2022-12-12T03:20:57.189Z,12.60
2022-12-12T03:23:26.593Z,13.13
2022-12-12T03:25:59.929Z,13.55
2022-12-12T03:28:32.291Z,13.07
2022-12-12T03:31:02.901Z,13.73
2022-12-12T03:33:33.703Z,12.93
2022-12-12T03:36:05.921Z,13.38
2022-12-12T03:38:35.057Z,14.05
2022-12-12T03:41:04.824Z,13.25
2022-12-12T03:43:34.492Z,13.50
2022-12-12T03:46:06.904Z,13.20
2022-12-12T03:48:44.305Z,13.40
2022-12-12T03:51:13.711Z,13.90
2022-12-12T03:53:45.481Z,13.63
2022-12-12T03:56:12.532Z,13.60
2022-12-12T03:58:43.020Z,13.88
2022-12-12T04:01:11.663Z,14.00
2022-12-12T04:03:45.313Z,14.33
2022-12-12T04:06:33.664Z,14.25
2022-12-12T04:09:22.446Z,14.32
2022-12-12T04:12:12.634Z,14.48
2022-12-12T04:14:59.645Z,14.80
2022-12-12T04:17:33.508Z,14.00
2022-12-12T04:20:24.745Z,13.95
2022-12-12T04:23:15.913Z,15.45
2022-12-12T04:26:06.141Z,15.45
2022-12-12T04:28:33.679Z,15.37
2022-12-12T04:31:04.286Z,13.85
2022-12-12T04:33:36.468Z,14.68
2022-12-12T04:36:04.731Z,14.15
2022-12-12T04:38:32.120Z,14.68
2022-12-12T04:41:00.192Z,15.68
2022-12-12T04:43:31.494Z,13.52
2022-12-12T04:46:00.929Z,14.35
2022-12-12T04:48:37.047Z,14.13
2022-12-12T04:51:06.592Z,13.77
2022-12-12T04:53:36.231Z,15.27
2022-12-12T04:56:05.961Z,14.55
2022-12-12T04:58:32.945Z,15.05
2022-12-12T05:01:08.104Z,15.98
2022-12-12T05:03:41.287Z,14.95
2022-12-12T05:06:13.457Z,14.70
2022-12-12T05:08:43.013Z,15.30
2022-12-12T05:11:10.547Z,13.90
2022-12-12T05:13:39.024Z,14.63
2022-12-12T05:16:24.514Z,16.02
2022-12-12T05:18:51.772Z,14.20
2022-12-12T05:21:18.860Z,13.60
2022-12-12T05:23:45.946Z,13.25
2022-12-12T05:26:23.212Z,13.67
2022-12-12T05:28:50.863Z,14.20
2022-12-12T05:31:17.951Z,14.75
2022-12-12T05:33:45.076Z,14.55
2022-12-12T05:36:12.550Z,13.17
2022-12-12T05:38:39.780Z,13.68
2022-12-12T05:41:07.031Z,14.02
2022-12-12T05:43:34.220Z,13.00
2022-12-12T05:46:01.428Z,12.83
2022-12-12T05:48:28.715Z,12.05
2022-12-12T05:50:55.837Z,12.75
2022-12-12T05:53:23.149Z,11.80
2022-12-12T05:55:52.048Z,12.38
2022-12-12T05:58:19.540Z,10.98
2022-12-12T06:00:48.867Z,10.95
2022-12-12T06:03:16.536Z,11.45
2022-12-12T06:05:43.634Z,11.63
2022-12-12T06:08:10.837Z,11.45
2022-12-12T06:10:38.044Z,10.68
2022-12-12T06:13:05.072Z,10.52
2022-12-12T06:15:32.159Z,9.82
2022-12-12T06:17:59.332Z,9.38
2022-12-12T06:20:26.476Z,9.88
2022-12-12T06:22:54.090Z,10.00
2022-12-12T06:25:21.212Z,10.70
2022-12-12T06:27:48.313Z,10.80
2022-12-12T06:30:15.419Z,11.50
2022-12-12T06:32:42.656Z,12.80
2022-12-12T06:35:10.184Z,12.05
2022-12-12T06:37:37.827Z,11.43
2022-12-12T06:40:05.751Z,10.95
2022-12-12T06:42:32.859Z,11.40
2022-12-12T06:44:59.999Z,12.70
2022-12-12T06:47:27.065Z,13.30
2022-12-12T06:49:53.720Z,12.73
2022-12-12T06:52:20.764Z,12.88
2022-12-12T06:54:47.954Z,12.77
2022-12-12T06:57:14.979Z,12.25
2022-12-12T06:59:42.050Z,12.32
2022-12-12T07:02:10.439Z,13.45
2022-12-12T07:04:37.543Z,14.07
2022-12-12T07:07:04.582Z,14.18
2022-12-12T07:09:31.376Z,13.95
2022-12-12T07:11:58.462Z,13.82
2022-12-12T07:14:25.510Z,15.15
2022-12-12T07:16:52.623Z,18.00
2022-12-12T07:19:19.695Z,18.70
2022-12-12T07:21:46.806Z,16.58
2022-12-12T07:24:15.603Z,16.40
2022-12-12T07:26:42.698Z,16.08
2022-12-12T07:29:09.757Z,15.75
2022-12-12T07:31:36.864Z,14.38
2022-12-12T07:34:03.947Z,15.10
2022-12-12T07:36:30.910Z,14.30
2022-12-12T07:38:57.432Z,15.20
2022-12-12T07:41:24.487Z,15.05
2022-12-12T07:43:52.381Z,19.60
2022-12-12T07:46:21.203Z,17.90
2022-12-12T07:48:48.569Z,18.63
2022-12-12T07:51:16.113Z,18.23
2022-12-12T07:53:43.313Z,18.23
2022-12-12T07:56:11.586Z,17.45
2022-12-12T07:58:38.974Z,15.80
2022-12-12T08:01:14.381Z,14.15
2022-12-12T08:03:42.273Z,13.27
2022-12-12T08:06:09.542Z,12.95
2022-12-12T08:08:36.705Z,14.38
2022-12-12T08:11:07.643Z,13.65
2022-12-12T08:13:36.078Z,14.80
2022-12-12T08:16:04.457Z,13.40
2022-12-12T08:18:31.950Z,12.95
2022-12-12T08:20:59.054Z,13.30
2022-12-12T08:23:26.247Z,13.60
2022-12-12T08:25:53.260Z,12.63
2022-12-12T08:28:20.337Z,12.50
2022-12-12T08:30:50.982Z,14.18
2022-12-12T08:33:18.322Z,14.20
2022-12-12T08:35:45.490Z,14.68
2022-12-12T08:38:12.607Z,15.75
2022-12-12T08:40:39.798Z,15.15
2022-12-12T08:43:06.856Z,14.82
2022-12-12T08:45:33.993Z,14.18
2022-12-12T08:48:01.066Z,15.55
2022-12-12T08:50:28.117Z,15.70
2022-12-12T08:52:55.282Z,16.45
2022-12-12T08:55:22.351Z,17.42
2022-12-12T08:57:49.410Z,18.38
2022-12-12T09:00:16.776Z,18.75
2022-12-12T09:02:44.264Z,19.27
2022-12-12T09:05:11.640Z,17.95
2022-12-12T09:07:38.901Z,19.00
2022-12-12T09:10:06.380Z,19.60
2022-12-12T09:12:36.955Z,18.77
2022-12-12T09:15:09.057Z,18.67
2022-12-12T09:17:36.248Z,16.70
2022-12-12T09:20:03.516Z,16.85
2022-12-12T09:22:30.595Z,17.63
2022-12-12T09:24:57.669Z,17.65
2022-12-12T09:27:25.449Z,18.83
2022-12-12T09:29:52.548Z,18.02
2022-12-12T09:32:24.410Z,18.10
2022-12-12T09:34:51.986Z,18.90
2022-12-12T09:37:19.217Z,17.92
2022-12-12T09:39:46.341Z,17.90
2022-12-12T09:42:20.955Z,17.85
2022-12-12T09:44:48.509Z,17.95
2022-12-12T09:47:18.990Z,17.38
2022-12-12T09:49:46.214Z,17.08
2022-12-12T09:52:16.433Z,18.05
2022-12-12T09:54:43.873Z,16.33
2022-12-12T09:57:30.849Z,14.00
2022-12-12T10:00:03.977Z,14.85
2022-12-12T10:02:38.520Z,12.43
2022-12-12T10:05:14.277Z,13.43
2022-12-12T10:07:47.418Z,14.90
2022-12-12T10:10:34.457Z,13.30
2022-12-12T10:13:02.950Z,14.02
2022-12-12T10:15:39.440Z,11.77
2022-12-12T10:18:10.607Z,12.32
2022-12-12T10:20:44.084Z,13.48
2022-12-12T10:23:31.388Z,11.77
2022-12-12T10:26:01.780Z,12.75
2022-12-12T10:28:31.028Z,14.05
2022-12-12T10:30:59.092Z,13.00
2022-12-12T10:33:33.031Z,13.63
2022-12-12T10:36:06.373Z,11.15
2022-12-12T10:38:53.846Z,11.77
2022-12-12T10:41:34.033Z,11.52
2022-12-12T10:44:05.977Z,11.30
2022-12-12T10:46:41.214Z,10.98
2022-12-12T10:49:17.122Z,10.87
2022-12-12T10:51:44.784Z,10.75
2022-12-12T10:54:15.292Z,11.18
2022-12-12T10:57:02.203Z,11.07
2022-12-12T10:59:29.429Z,11.63
2022-12-12T11:02:10.227Z,11.33
2022-12-12T11:04:37.903Z,11.03
2022-12-12T11:07:04.907Z,9.63
2022-12-12T11:09:31.988Z,11.05
2022-12-12T11:12:01.212Z,13.27
2022-12-12T11:14:36.900Z,13.18
2022-12-12T11:17:18.824Z,15.63
2022-12-12T11:19:46.244Z,14.80
2022-12-12T11:22:13.754Z,13.02
2022-12-12T11:24:44.208Z,13.38
2022-12-12T11:27:19.062Z,12.13
2022-12-12T11:29:46.164Z,12.13
2022-12-12T11:32:15.188Z,10.05
2022-12-12T11:34:46.268Z,9.68
2022-12-12T11:37:17.877Z,11.13
2022-12-12T11:39:46.445Z,9.73
2022-12-12T11:42:13.456Z,10.02
2022-12-12T11:44:41.053Z,10.90
2022-12-12T11:47:20.320Z,10.40
2022-12-12T11:49:48.022Z,10.02
2022-12-12T11:52:19.188Z,10.00
2022-12-12T11:54:46.542Z,10.00
2022-12-12T11:57:17.408Z,9.05
2022-12-12T11:59:54.822Z,9.65
2022-12-12T12:02:41.810Z,9.27
2022-12-12T12:05:08.885Z,9.55
2022-12-12T12:07:50.603Z,9.55
2022-12-12T12:10:22.623Z,9.35
2022-12-12T12:13:11.324Z,8.65
2022-12-12T12:15:53.552Z,8.32
2022-12-12T12:18:28.509Z,8.10
2022-12-12T12:20:58.869Z,8.50
2022-12-12T12:23:27.029Z,8.48
2022-12-12T12:25:57.349Z,8.35
2022-12-12T12:28:35.688Z,9.05
2022-12-12T12:31:22.671Z,8.90
2022-12-12T12:33:57.205Z,7.85
2022-12-12T12:36:38.554Z,8.00
2022-12-12T12:39:15.956Z,7.65
2022-12-12T12:41:53.505Z,7.50
2022-12-12T12:44:34.809Z,7.50
2022-12-12T12:47:17.612Z,7.85
2022-12-12T12:49:47.539Z,8.57
2022-12-12T12:52:27.741Z,7.90
2022-12-12T12:54:56.827Z,8.32
2022-12-12T12:57:34.753Z,9.15
2022-12-12T13:00:05.526Z,8.70
2022-12-12T13:02:35.861Z,7.85
2022-12-12T13:05:16.707Z,8.00
2022-12-12T13:07:48.167Z,8.68
2022-12-12T13:10:21.865Z,7.47
2022-12-12T13:12:53.024Z,7.75
2022-12-12T13:15:26.352Z,9.40
2022-12-12T13:18:02.173Z,8.95
2022-12-12T13:20:30.683Z,7.90
2022-12-12T13:22:57.736Z,7.85
2022-12-12T13:25:32.300Z,8.82
2022-12-12T13:28:01.344Z,7.20
2022-12-12T13:30:38.871Z,7.17
2022-12-12T13:33:07.111Z,7.68
2022-12-12T13:35:36.365Z,7.43
2022-12-12T13:38:03.771Z,7.70
2022-12-12T13:40:32.315Z,8.37
2022-12-12T13:43:09.141Z,7.95
2022-12-12T13:45:37.965Z,8.60
2022-12-12T13:48:06.379Z,8.93
2022-12-12T13:50:33.523Z,8.18
2022-12-12T13:53:08.263Z,7.97
2022-12-12T13:55:36.002Z,8.30
2022-12-12T13:58:05.496Z,8.20
2022-12-12T14:00:33.638Z,7.78
2022-12-12T14:03:02.015Z,7.85
2022-12-12T14:05:32.079Z,7.82
2022-12-12T14:07:59.157Z,8.10
2022-12-12T14:10:32.223Z,8.13
2022-12-12T14:13:15.945Z,8.33
2022-12-12T14:15:44.229Z,8.02
2022-12-12T14:18:19.232Z,8.15
2022-12-12T14:20:52.387Z,8.07
2022-12-12T14:23:25.719Z,7.78
2022-12-12T14:25:53.298Z,8.10
2022-12-12T14:28:21.654Z,7.45
2022-12-12T14:30:51.247Z,7.72
2022-12-12T14:33:18.326Z,8.18
2022-12-12T14:35:51.954Z,8.18
2022-12-12T14:38:22.259Z,8.27
2022-12-12T14:40:56.428Z,9.00
2022-12-12T14:43:26.745Z,8.32
2022-12-12T14:45:56.262Z,8.70
2022-12-12T14:48:23.603Z,9.35
2022-12-12T14:50:54.360Z,8.73
2022-12-12T14:53:23.087Z,9.02
2022-12-12T14:55:59.527Z,9.35
2022-12-12T14:58:28.495Z,10.25
2022-12-12T15:00:57.542Z,11.70
2022-12-12T15:03:26.720Z,15.23
2022-12-12T15:06:13.746Z,18.38
2022-12-12T15:08:41.932Z,16.58
2022-12-12T15:11:13.883Z,13.05
2022-12-12T15:13:49.995Z,11.95
2022-12-12T15:16:17.563Z,10.85
2022-12-12T15:18:44.986Z,11.52
2022-12-12T15:21:12.247Z,10.02
2022-12-12T15:23:41.083Z,9.57
2022-12-12T15:26:15.120Z,9.18
2022-12-12T15:28:43.371Z,10.45
2022-12-12T15:31:14.028Z,9.77
2022-12-12T15:33:41.225Z,10.77
2022-12-12T15:36:17.421Z,13.18
2022-12-12T15:38:44.526Z,13.90
2022-12-12T15:41:13.793Z,13.52
2022-12-12T15:43:43.042Z,13.97
2022-12-12T15:46:14.489Z,12.73
2022-12-12T15:48:42.690Z,12.60
2022-12-12T15:51:10.786Z,12.57
2022-12-12T15:53:40.542Z,12.18
2022-12-12T15:56:07.644Z,14.07
2022-12-12T15:58:35.763Z,16.23
2022-12-12T16:01:06.559Z,14.57
2022-12-12T16:03:34.271Z,13.20
2022-12-12T16:06:04.338Z,13.10
2022-12-12T16:08:33.370Z,11.95
2022-12-12T16:11:01.576Z,11.35
2022-12-12T16:13:36.124Z,17.35
2022-12-12T16:16:08.645Z,19.48
2022-12-12T16:18:37.820Z,15.63
2022-12-12T16:21:04.924Z,14.45
2022-12-12T16:23:33.076Z,12.80
2022-12-12T16:26:00.328Z,12.20
2022-12-12T16:28:29.220Z,11.63
2022-12-12T16:30:59.120Z,18.13
2022-12-12T16:33:30.754Z,28.30
2022-12-12T16:35:59.367Z,18.08
2022-12-12T16:38:27.243Z,15.50
2022-12-12T16:40:55.047Z,15.40
2022-12-12T16:43:23.035Z,13.98
2022-12-12T16:45:50.903Z,11.60
2022-12-12T16:48:18.262Z,11.35
2022-12-12T16:50:45.916Z,11.73
2022-12-12T16:53:13.108Z,12.43
2022-12-12T16:55:41.704Z,12.03
2022-12-12T16:58:08.908Z,12.75
2022-12-12T17:00:36.048Z,13.43
2022-12-12T17:03:03.198Z,17.43
2022-12-12T17:05:30.478Z,24.85
2022-12-12T17:07:57.623Z,21.75
2022-12-12T17:10:25.870Z,20.35
2022-12-12T17:12:53.774Z,17.10
2022-12-12T17:15:23.265Z,15.98
2022-12-12T17:17:50.452Z,15.50
2022-12-12T17:20:17.751Z,15.68
2022-12-12T17:22:45.461Z,16.23
2022-12-12T17:25:12.710Z,16.98
2022-12-12T17:27:40.966Z,15.07
2022-12-12T17:30:09.482Z,14.23
2022-12-12T17:32:36.611Z,14.25
2022-12-12T17:35:04.391Z,14.57
2022-12-12T17:37:31.603Z,30.42
2022-12-12T17:39:58.838Z,34.17
2022-12-12T17:42:25.938Z,85.97
2022-12-12T17:44:52.777Z,48.42
2022-12-12T17:47:19.838Z,49.50
2022-12-12T17:49:47.997Z,34.60
2022-12-12T17:52:15.606Z,28.65
2022-12-12T17:54:42.718Z,19.70
2022-12-12T17:57:30.701Z,16.67
2022-12-12T17:59:58.190Z,16.20
2022-12-12T18:02:25.782Z,17.92
2022-12-12T18:04:52.932Z,18.80
2022-12-12T18:07:20.042Z,19.90
2022-12-12T18:09:47.128Z,21.23
2022-12-12T18:12:14.178Z,18.30
2022-12-12T18:14:41.293Z,18.73
2022-12-12T18:17:08.488Z,18.95
2022-12-12T18:19:35.696Z,23.63
2022-12-12T18:22:02.801Z,20.45
2022-12-12T18:24:30.292Z,20.20
2022-12-12T18:26:58.595Z,21.25
2022-12-12T18:29:26.132Z,28.43
2022-12-12T18:31:53.734Z,26.38
2022-12-12T18:34:20.897Z,26.58
2022-12-12T18:36:49.263Z,25.27
2022-12-12T18:39:16.837Z,23.58
2022-12-12T18:41:43.953Z,22.65
2022-12-12T18:44:12.432Z,21.98
2022-12-12T18:46:43.086Z,20.83
2022-12-12T18:49:12.944Z,22.25
2022-12-12T18:51:40.133Z,22.70
2022-12-12T18:54:14.300Z,22.30
2022-12-12T18:56:42.098Z,22.73
2022-12-12T18:59:09.356Z,22.00
2022-12-12T19:01:36.807Z,20.30
2022-12-12T19:04:11.276Z,19.20
2022-12-12T19:06:41.761Z,18.63
2022-12-12T19:09:11.730Z,19.52
2022-12-12T19:11:38.852Z,20.92
2022-12-12T19:14:06.743Z,32.72
2022-12-12T19:16:33.956Z,27.90
2022-12-12T19:19:01.808Z,24.52
2022-12-12T19:21:29.005Z,22.90
2022-12-12T19:23:56.493Z,20.63
2022-12-12T19:26:27.777Z,19.60
2022-12-12T19:29:04.472Z,21.95
2022-12-12T19:31:35.918Z,19.70
2022-12-12T19:34:04.084Z,18.05
2022-12-12T19:36:31.221Z,18.42
2022-12-12T19:38:59.043Z,21.83
2022-12-12T19:41:26.560Z,21.92
2022-12-12T19:43:54.072Z,23.77
2022-12-12T19:46:22.960Z,21.23
2022-12-12T19:48:53.705Z,20.77
2022-12-12T19:51:21.468Z,20.27
2022-12-12T19:53:49.843Z,20.67
2022-12-12T19:56:24.317Z,21.58
2022-12-12T19:58:51.588Z,19.65
2022-12-12T20:01:20.414Z,17.55
2022-12-12T20:03:51.576Z,18.77
2022-12-12T20:06:18.787Z,22.50
2022-12-12T20:08:46.181Z,21.92
2022-12-12T20:11:14.508Z,19.27
2022-12-12T20:13:41.804Z,18.70
2022-12-12T20:16:10.541Z,20.23
2022-12-12T20:18:38.041Z,20.05
2022-12-12T20:21:05.297Z,20.15
2022-12-12T20:23:33.179Z,19.70
2022-12-12T20:26:03.264Z,18.75
2022-12-12T20:28:30.339Z,19.25
2022-12-12T20:31:05.842Z,19.77
2022-12-12T20:33:33.264Z,22.02
2022-12-12T20:36:02.520Z,22.98
2022-12-12T20:38:30.293Z,21.93
2022-12-12T20:40:57.437Z,20.88
2022-12-12T20:43:24.531Z,19.40
2022-12-12T20:45:51.710Z,17.67
2022-12-12T20:48:18.783Z,17.50
2022-12-12T20:50:45.881Z,16.63
2022-12-12T20:53:13.260Z,18.80
2022-12-12T20:55:40.356Z,18.90
2022-12-12T20:58:07.507Z,18.70
2022-12-12T21:00:36.492Z,23.02
2022-12-12T21:03:03.630Z,24.30
2022-12-12T21:05:30.831Z,23.05
2022-12-12T21:07:58.001Z,23.75
2022-12-12T21:10:25.128Z,27.63
2022-12-12T21:12:52.226Z,23.43
2022-12-12T21:15:19.707Z,23.90
2022-12-12T21:17:46.963Z,20.37
2022-12-12T21:20:13.992Z,19.88
2022-12-12T21:22:41.164Z,17.83
2022-12-12T21:25:08.323Z,17.05
2022-12-12T21:27:35.376Z,17.40
2022-12-12T21:30:02.446Z,17.95
2022-12-12T21:32:29.583Z,27.90
2022-12-12T21:34:56.728Z,30.60
2022-12-12T21:37:23.891Z,26.15
2022-12-12T21:39:53.121Z,25.27
2022-12-12T21:42:20.171Z,24.27
2022-12-12T21:44:47.230Z,25.85
2022-12-12T21:47:14.365Z,20.77
2022-12-12T21:49:41.404Z,18.65
2022-12-12T21:52:10.021Z,17.38
2022-12-12T21:54:37.132Z,18.30
2022-12-12T21:57:04.267Z,20.58
2022-12-12T21:59:31.404Z,18.23
2022-12-12T22:01:59.407Z,17.45
2022-12-12T22:04:26.863Z,17.58
2022-12-12T22:06:54.126Z,17.05
2022-12-12T22:09:21.239Z,17.45
2022-12-12T22:11:50.564Z,17.95
2022-12-12T22:14:20.966Z,21.52
2022-12-12T22:16:48.085Z,20.48
2022-12-12T22:19:15.985Z,20.33
2022-12-12T22:21:45.146Z,20.00
2022-12-12T22:24:12.227Z,20.23
2022-12-12T22:26:40.247Z,20.65
2022-12-12T22:29:09.079Z,18.10
2022-12-12T22:31:38.339Z,18.23
2022-12-12T22:34:07.380Z,17.02
2022-12-12T22:36:35.672Z,18.98
2022-12-12T22:39:02.754Z,30.73
2022-12-12T22:41:30.434Z,31.47
2022-12-12T22:43:59.540Z,24.65
2022-12-12T22:46:26.979Z,21.40
2022-12-12T22:48:55.155Z,22.13
2022-12-12T22:51:23.932Z,20.42
2022-12-12T22:53:51.262Z,20.73
2022-12-12T22:56:18.296Z,18.90
2022-12-12T22:58:45.273Z,18.95
2022-12-12T23:01:14.119Z,19.90
2022-12-12T23:03:41.459Z,18.85
2022-12-12T23:06:13.331Z,17.30
2022-12-12T23:08:40.892Z,16.95
2022-12-12T23:11:09.324Z,17.40
2022-12-12T23:13:36.565Z,15.83
2022-12-12T23:16:05.828Z,16.17
2022-12-12T23:18:33.058Z,16.83
2022-12-12T23:21:00.136Z,16.60
2022-12-12T23:23:27.230Z,16.15
2022-12-12T23:25:54.269Z,17.38
2022-12-12T23:28:21.353Z,16.98
2022-12-12T23:30:48.466Z,16.57
2022-12-12T23:33:15.577Z,16.58
2022-12-12T23:35:46.810Z,17.52
2022-12-12T23:38:14.184Z,17.13
2022-12-12T23:40:41.688Z,16.98
2022-12-12T23:43:08.726Z,16.27
2022-12-12T23:45:36.327Z,15.90
2022-12-12T23:48:03.751Z,16.95
2022-12-12T23:50:30.849Z,16.05
2022-12-12T23:52:58.162Z,17.33
2022-12-12T23:55:25.196Z,16.43
2022-12-12T23:57:52.332Z,15.88
